createdAt,value
2019-06-27T00:04:56.436Z,6.00
2019-06-27T00:09:57.725Z,7.20
2019-06-27T00:14:59.039Z,6.47
2019-06-27T00:20:00.359Z,5.75
2019-06-27T00:25:01.779Z,5.87
2019-06-27T00:30:03.867Z,7.57
2019-06-27T00:35:05.197Z,7.57
2019-06-27T00:40:06.521Z,6.50
2019-06-27T00:45:07.859Z,6.35
2019-06-27T00:50:09.192Z,8.23
2019-06-27T00:55:10.507Z,7.37
2019-06-27T01:00:11.848Z,7.62
2019-06-27T01:05:13.172Z,6.78
2019-06-27T01:10:14.513Z,7.15
2019-06-27T01:15:15.863Z,7.18
2019-06-27T01:20:17.186Z,6.60
2019-06-27T01:25:19.264Z,7.10
2019-06-27T01:30:21.362Z,6.67
2019-06-27T01:35:22.677Z,6.10
2019-06-27T01:40:24.018Z,7.73
2019-06-27T01:45:29.104Z,6.87
2019-06-27T01:50:35.427Z,6.57
2019-06-27T01:55:50.178Z,6.40
2019-06-27T02:00:52.281Z,6.13
2019-06-27T02:05:53.585Z,6.20
2019-06-27T02:10:54.903Z,5.73
2019-06-27T02:15:57.011Z,7.13
2019-06-27T02:20:58.329Z,6.53
2019-06-27T02:26:00.410Z,6.40
2019-06-27T02:31:01.851Z,6.50
2019-06-27T02:36:03.164Z,7.10
2019-06-27T02:41:04.493Z,7.40
2019-06-27T02:46:05.816Z,8.30
2019-06-27T02:51:07.132Z,8.50
2019-06-27T02:56:08.442Z,8.97
2019-06-27T03:01:09.864Z,8.30
2019-06-27T03:06:11.190Z,8.93
2019-06-27T03:11:13.115Z,8.80
2019-06-27T03:16:15.187Z,8.93
2019-06-27T03:21:17.240Z,8.23
2019-06-27T03:26:18.572Z,8.20
2019-06-27T03:31:19.899Z,8.10
2019-06-27T03:36:22.014Z,8.20
2019-06-27T03:41:23.341Z,8.83
2019-06-27T03:46:24.653Z,8.77
2019-06-27T03:51:25.950Z,8.87
2019-06-27T03:56:27.369Z,8.00
2019-06-27T04:01:29.821Z,8.07
2019-06-27T04:06:31.931Z,8.03
2019-06-27T04:11:33.249Z,7.93
2019-06-27T04:16:34.605Z,7.40
2019-06-27T04:21:35.957Z,7.30
2019-06-27T04:26:37.334Z,6.73
2019-06-27T04:31:38.662Z,7.30
2019-06-27T04:36:39.986Z,6.80
2019-06-27T04:41:42.103Z,7.07
2019-06-27T04:46:43.445Z,6.60
2019-06-27T04:51:45.486Z,6.63
2019-06-27T04:56:46.778Z,6.20
2019-06-27T05:01:48.976Z,6.83
2019-06-27T05:06:51.015Z,6.50
2019-06-27T05:11:52.380Z,4.87
2019-06-27T05:16:53.722Z,5.10
2019-06-27T05:21:55.110Z,5.47
2019-06-27T05:26:56.418Z,5.97
2019-06-27T05:31:58.591Z,6.03
2019-06-27T05:37:01.663Z,6.17
2019-06-27T05:42:03.121Z,5.57
2019-06-27T05:47:04.647Z,5.20
2019-06-27T05:52:06.007Z,5.27
2019-06-27T05:57:07.313Z,6.13
2019-06-27T06:02:08.762Z,6.60
2019-06-27T06:07:10.119Z,6.93
2019-06-27T06:12:11.496Z,6.03
2019-06-27T06:17:13.896Z,5.77
2019-06-27T06:22:15.357Z,6.23
2019-06-27T06:27:16.850Z,6.50
2019-06-27T06:32:18.390Z,6.97
2019-06-27T06:37:23.369Z,5.13
2019-06-27T06:42:24.812Z,6.83
2019-06-27T06:47:26.181Z,6.70
2019-06-27T06:52:27.549Z,6.90
2019-06-27T06:57:28.852Z,6.83
2019-06-27T07:02:30.264Z,7.10
2019-06-27T07:07:31.604Z,6.63
2019-06-27T07:12:33.678Z,6.70
2019-06-27T07:17:35.747Z,6.90
2019-06-27T07:22:37.066Z,7.47
2019-06-27T07:27:38.408Z,7.28
2019-06-27T07:32:39.827Z,6.90
2019-06-27T07:37:41.125Z,6.77
2019-06-27T07:42:42.463Z,6.97
2019-06-27T07:47:47.504Z,8.32
2019-06-27T07:52:48.925Z,8.60
2019-06-27T07:57:55.723Z,7.87
2019-06-27T08:03:00.427Z,8.60
2019-06-27T08:08:01.725Z,8.88
2019-06-27T08:13:03.025Z,8.55
2019-06-27T08:18:04.366Z,7.72
2019-06-27T08:23:05.679Z,9.00
